Kezdőlap
METAR-TAF:

METAR-TAF

Repülőterek :

Zakynthos, Görögország

földrajzi szélesség: 37-45N, földrajzi hosszúság: 020-53E, magasság: 3 m

Jelenlegi meteorológiai megfigyelések

A jelentés 9 órával és 25 perccel ezelõtt készült, 17:50 UTC
Szélcsend
Hőmérséklet 12°C
Páratartalom 62%
Légköri nyomás 1024 hPa
Látótávolság 10 km, vagy több
felhőtlen 1500 m magasságban, és nincs gomolyfelhõ

METAR: LGZA 231750Z 00000KT CAVOK 12/05 Q1024

Idő: 05:15 (03:15 UTC)

Előrejelzés

A jelentés 1 órával és 15 perccel ezelõtt készült, 02:00 UTC
Az előrejelzés 24-én 03 óra UTC és 24-én 12 óra UTC között érvényes
Észak-északnyugati szél 8 kt
Látótávolság 10 km, vagy több
Kevés felhő 1800 lábon

TAF: LGZA 240200Z 2403/2412 33008KT 9999 FEW018

Meteorológiai megfigyelések és előrejelzések több, mint 4000 repülőtéren (METAR és TAF jelentéseket).

A térképen piros és sárga pontok jelzik az elérhető meteorológiai állomásokat.

Mozgassa az egeret a pont fölött, hogy megjelenjen az állomás neve.

Azután kattintson az időjárási megfigyelések és előrejelzések megtekintéséhez.

A térkép megváltoztatása: kattintson a fekete keresztel jelölt zöld gombra ráközelítéshez, a vonallal jelölt zöld gombra távolításhoz, vagy a zöld nyilakra a szomszédos térképek eléréséhez.


METAR-TAF: